createdAt,value
2018-11-07T00:00:01.853Z,11.02
2018-11-07T00:05:01.224Z,11.05
2018-11-07T00:10:02.488Z,11.07
2018-11-07T00:15:01.753Z,11.07
2018-11-07T00:20:02.018Z,11
2018-11-07T00:25:01.337Z,10.95
2018-11-07T00:30:01.743Z,10.9
2018-11-07T00:35:01.344Z,10.85
2018-11-07T00:40:02.053Z,10.84
2018-11-07T00:45:01.324Z,10.81
2018-11-07T00:50:01.641Z,10.78
2018-11-07T00:55:01.929Z,10.67
2018-11-07T01:00:01.264Z,10.64
2018-11-07T01:05:01.534Z,10.48
2018-11-07T01:10:01.809Z,10.39
2018-11-07T01:15:02.115Z,10.27
2018-11-07T01:20:01.379Z,10.26
2018-11-07T01:25:01.673Z,10.11
2018-11-07T01:30:01.929Z,9.97
2018-11-07T01:35:01.292Z,9.89
2018-11-07T01:40:01.825Z,9.79
2018-11-07T01:45:01.100Z,9.67
2018-11-07T01:50:01.591Z,9.64
2018-11-07T01:55:01.925Z,9.64
2018-11-07T02:00:01.322Z,9.63
2018-11-07T02:05:01.665Z,9.54
2018-11-07T02:10:08.923Z,9.42
2018-11-07T02:15:01.315Z,9.42
2018-11-07T02:20:01.474Z,9.4
2018-11-07T02:25:01.772Z,9.4
2018-11-07T02:30:02.091Z,9.39
2018-11-07T02:35:01.398Z,9.27
2018-11-07T02:40:01.777Z,9.08
2018-11-07T02:45:02.045Z,9.04
2018-11-07T02:50:01.356Z,9.06
2018-11-07T02:55:01.664Z,9.14
2018-11-07T03:00:01.930Z,9.24
2018-11-07T03:05:01.255Z,9.25
2018-11-07T03:10:01.669Z,9.26
2018-11-07T03:15:01.302Z,9.21
2018-11-07T03:20:01.572Z,9.19
2018-11-07T03:25:01.851Z,9.25
2018-11-07T03:30:01.147Z,9.36
2018-11-07T03:35:01.474Z,9.42
2018-11-07T03:40:02.021Z,9.51
2018-11-07T03:45:01.296Z,9.51
2018-11-07T03:50:01.253Z,9.52
2018-11-07T03:55:01.576Z,9.48
2018-11-07T04:00:02.235Z,9.5
2018-11-07T04:05:01.502Z,9.62
2018-11-07T04:10:01.836Z,9.67
2018-11-07T04:15:01.195Z,9.68
2018-11-07T04:20:01.536Z,9.7
2018-11-07T04:25:01.816Z,9.63
2018-11-07T04:30:02.111Z,9.59
2018-11-07T04:35:01.371Z,9.59
2018-11-07T04:40:01.700Z,9.53
2018-11-07T04:45:01.969Z,9.49
2018-11-07T04:50:01.250Z,9.41
2018-11-07T04:55:01.571Z,9.35
2018-11-07T05:00:01.914Z,9.32
2018-11-07T05:05:01.334Z,9.27
2018-11-07T05:10:01.694Z,9.21
2018-11-07T05:15:01.965Z,9.18
2018-11-07T05:20:01.253Z,9.14
2018-11-07T05:25:01.574Z,9.15
2018-11-07T05:30:01.857Z,9.15
2018-11-07T05:35:01.157Z,9.17
2018-11-07T05:40:01.311Z,9.17
2018-11-07T05:45:01.600Z,9.14
2018-11-07T05:50:01.916Z,9.1
2018-11-07T05:55:01.193Z,9.12
2018-11-07T06:00:01.469Z,9.16
2018-11-07T06:05:01.787Z,9.2
2018-11-07T06:10:02.058Z,9.24
2018-11-07T06:15:01.304Z,9.27
2018-11-07T06:20:01.624Z,9.25
2018-11-07T06:25:01.994Z,9.23
2018-11-07T06:30:01.886Z,9.34
2018-11-07T06:35:01.157Z,9.37
2018-11-07T06:40:01.445Z,9.56
2018-11-07T06:45:01.760Z,9.68
2018-11-07T06:50:02.041Z,9.7
2018-11-07T06:55:01.308Z,9.68
2018-11-07T07:00:01.606Z,9.7
2018-11-07T07:05:01.928Z,9.74
2018-11-07T07:10:01.189Z,9.75
2018-11-07T07:15:01.495Z,9.79
2018-11-07T07:20:01.811Z,9.91
2018-11-07T07:25:02.102Z,9.93
2018-11-07T07:30:01.489Z,9.96
2018-11-07T07:35:01.285Z,10.03
2018-11-07T07:40:01.597Z,10.12
2018-11-07T07:45:01.173Z,10.23
2018-11-07T07:50:01.473Z,10.38
2018-11-07T07:55:01.793Z,10.46
2018-11-07T08:00:02.081Z,10.56
2018-11-07T08:05:01.430Z,10.64
2018-11-07T08:10:01.754Z,10.71
2018-11-07T08:15:02.021Z,10.74
2018-11-07T08:20:01.315Z,10.78
2018-11-07T08:25:01.609Z,10.88
2018-11-07T08:30:01.862Z,11.03
2018-11-07T08:35:01.167Z,11.19
2018-11-07T08:40:01.512Z,11.37
2018-11-07T08:45:01.824Z,11.49
2018-11-07T08:50:01.107Z,11.64
2018-11-07T08:55:01.467Z,11.76
2018-11-07T09:00:02.028Z,11.9
2018-11-07T09:05:01.307Z,12.08
2018-11-07T09:10:01.580Z,12.28
2018-11-07T09:15:01.912Z,12.49
2018-11-07T09:20:01.372Z,12.63
2018-11-07T09:25:02.009Z,12.73
2018-11-07T09:30:01.262Z,12.95
2018-11-07T09:35:01.650Z,12.99
2018-11-07T09:40:01.934Z,13.08
2018-11-07T09:45:01.196Z,13.26
2018-11-07T09:50:01.470Z,13.45
2018-11-07T09:55:01.790Z,13.62
2018-11-07T10:00:02.046Z,13.59
2018-11-07T10:05:01.340Z,13.77
2018-11-07T10:10:01.709Z,14.05
2018-11-07T10:15:01.157Z,14.43
2018-11-07T10:20:01.473Z,14.68
2018-11-07T10:25:01.761Z,15.27
2018-11-07T10:30:02.526Z,15.51
2018-11-07T10:35:01.589Z,15.84
2018-11-07T10:40:02.041Z,16.02
2018-11-07T10:45:01.310Z,16.15
2018-11-07T10:50:01.668Z,16.28
2018-11-07T10:55:01.990Z,16.41
2018-11-07T11:00:01.247Z,16.6
2018-11-07T11:05:01.700Z,16.74
2018-11-07T11:10:01.267Z,16.8
2018-11-07T11:15:01.576Z,16.71
2018-11-07T11:20:01.877Z,16.2
2018-11-07T11:25:01.222Z,15.87
2018-11-07T11:30:01.508Z,15.75
2018-11-07T11:35:01.985Z,15.8
2018-11-07T11:40:01.804Z,15.96
2018-11-07T11:45:01.143Z,16.11
2018-11-07T11:50:01.448Z,16.16
2018-11-07T11:55:01.757Z,16.11
2018-11-07T12:00:02.465Z,16.13
2018-11-07T12:05:01.320Z,16.1
2018-11-07T12:10:01.595Z,16.11
2018-11-07T12:15:01.987Z,16.1
2018-11-07T12:20:01.383Z,16.06
2018-11-07T12:25:01.702Z,16.01
2018-11-07T12:30:01.945Z,15.89
2018-11-07T12:35:01.225Z,15.66
2018-11-07T12:40:01.540Z,15.43
2018-11-07T12:45:01.873Z,15.33
2018-11-07T12:50:01.398Z,15.26
2018-11-07T12:55:01.336Z,15.26
2018-11-07T13:00:01.667Z,15.28
2018-11-07T13:05:01.960Z,15.36
2018-11-07T13:10:01.221Z,15.36
2018-11-07T13:15:01.531Z,15.37
2018-11-07T13:20:01.843Z,15.37
2018-11-07T13:25:01.112Z,15.32
2018-11-07T13:30:01.449Z,15.32
2018-11-07T13:35:01.974Z,15.3
2018-11-07T13:40:01.577Z,15.3
2018-11-07T13:45:01.881Z,15.28
2018-11-07T13:50:01.140Z,15.25
2018-11-07T13:55:01.491Z,15.22
2018-11-07T14:00:01.809Z,15.18
2018-11-07T14:05:01.101Z,15.34
2018-11-07T14:10:01.386Z,15.45
2018-11-07T14:15:01.743Z,15.54
2018-11-07T14:20:02.067Z,15.54
2018-11-07T14:25:01.352Z,15.57
2018-11-07T14:30:01.646Z,15.52
2018-11-07T14:35:01.964Z,15.45
2018-11-07T14:40:01.259Z,15.38
2018-11-07T14:45:01.569Z,15.42
2018-11-07T14:50:01.871Z,15.44
2018-11-07T14:55:01.189Z,15.46
2018-11-07T15:00:01.750Z,15.44
2018-11-07T15:05:02.057Z,15.44
2018-11-07T15:10:01.318Z,15.49
2018-11-07T15:15:01.667Z,15.45
2018-11-07T15:20:01.937Z,15.34
2018-11-07T15:25:01.339Z,15.27
2018-11-07T15:30:02.046Z,15.24
2018-11-07T15:35:01.368Z,15.3
2018-11-07T15:40:01.820Z,15.3
2018-11-07T15:45:01.159Z,15.32
2018-11-07T15:50:01.604Z,15.29
2018-11-07T15:55:01.920Z,15.18
2018-11-07T16:00:01.243Z,15.12
2018-11-07T16:05:01.929Z,15.12
2018-11-07T16:10:01.230Z,15.07
2018-11-07T16:15:01.800Z,15
2018-11-07T16:20:02.063Z,14.94
2018-11-07T16:25:01.342Z,14.88
2018-11-07T16:30:01.642Z,14.85
2018-11-07T16:35:01.927Z,14.77
2018-11-07T16:40:01.190Z,14.71
2018-11-07T16:45:01.528Z,14.59
2018-11-07T16:50:01.829Z,14.53
2018-11-07T16:55:01.105Z,14.47
2018-11-07T17:00:01.391Z,14.44
2018-11-07T17:05:01.763Z,14.41
2018-11-07T17:10:01.187Z,14.36
2018-11-07T17:15:01.470Z,14.28
2018-11-07T17:20:01.781Z,14.15
2018-11-07T17:25:02.070Z,14.07
2018-11-07T17:30:01.336Z,14.07
2018-11-07T17:35:01.647Z,14.01
2018-11-07T17:40:01.931Z,13.99
2018-11-07T17:45:01.286Z,13.97
2018-11-07T17:50:01.571Z,13.95
2018-11-07T17:55:01.889Z,13.89
2018-11-07T18:00:01.184Z,13.79
2018-11-07T18:05:01.542Z,13.84
2018-11-07T18:10:01.851Z,13.83
2018-11-07T18:15:01.119Z,13.81
2018-11-07T18:20:01.438Z,13.79
2018-11-07T18:25:01.771Z,13.78
2018-11-07T18:30:02.034Z,13.73
2018-11-07T18:35:01.401Z,13.66
2018-11-07T18:40:01.974Z,13.67
2018-11-07T18:45:01.250Z,13.66
2018-11-07T18:50:01.611Z,13.66
2018-11-07T18:55:02.033Z,13.61
2018-11-07T19:00:01.370Z,13.65
2018-11-07T19:05:01.687Z,13.56
2018-11-07T19:10:01.976Z,13.53
2018-11-07T19:15:01.258Z,13.44
2018-11-07T19:20:01.577Z,13.43
2018-11-07T19:25:01.893Z,13.44
2018-11-07T19:30:01.164Z,13.45
2018-11-07T19:35:01.516Z,13.43
2018-11-07T19:40:01.885Z,13.37
2018-11-07T19:45:01.328Z,13.37
2018-11-07T19:50:01.622Z,13.36
2018-11-07T19:55:01.981Z,13.35
2018-11-07T20:00:01.563Z,13.34
2018-11-07T20:05:01.875Z,13.32
2018-11-07T20:10:01.150Z,13.3
2018-11-07T20:15:01.581Z,13.26
2018-11-07T20:20:01.897Z,13.24
2018-11-07T20:25:01.154Z,13.27
2018-11-07T20:30:01.437Z,13.24
2018-11-07T20:35:01.721Z,13.21
2018-11-07T20:40:01.957Z,13.21
2018-11-07T20:45:01.200Z,13.21
2018-11-07T20:50:01.438Z,13.18
2018-11-07T20:55:01.786Z,13.16
2018-11-07T21:00:01.398Z,13.1
2018-11-07T21:05:01.700Z,12.99
2018-11-07T21:10:01.935Z,13.03
2018-11-07T21:15:01.444Z,12.99
2018-11-07T21:20:01.701Z,12.95
2018-11-07T21:25:01.946Z,12.97
2018-11-07T21:30:01.207Z,12.94
2018-11-07T21:35:01.593Z,12.94
2018-11-07T21:40:02.065Z,12.94
2018-11-07T21:45:01.314Z,12.91
2018-11-07T21:50:01.575Z,12.87
2018-11-07T21:55:01.857Z,12.85
2018-11-07T22:00:01.124Z,12.77
2018-11-07T22:05:01.430Z,12.7
2018-11-07T22:10:01.760Z,12.7
2018-11-07T22:15:02.047Z,12.63
2018-11-07T22:20:01.312Z,12.6
2018-11-07T22:25:01.608Z,12.57
2018-11-07T22:30:01.889Z,12.57
2018-11-07T22:35:01.135Z,12.52
2018-11-07T22:40:01.365Z,12.46
2018-11-07T22:45:01.608Z,12.41
2018-11-07T22:50:01.883Z,12.42
2018-11-07T22:55:01.130Z,12.45
2018-11-07T23:00:01.380Z,12.44
2018-11-07T23:05:01.637Z,12.41
2018-11-07T23:10:01.928Z,12.35
2018-11-07T23:15:01.182Z,12.33
2018-11-07T23:20:01.442Z,12.33
2018-11-07T23:25:01.699Z,12.34
2018-11-07T23:30:01.971Z,12.37
2018-11-07T23:35:01.246Z,12.46
2018-11-07T23:40:01.528Z,12.51
2018-11-07T23:45:01.772Z,12.49
2018-11-07T23:50:02.040Z,12.45
2018-11-07T23:55:01.290Z,12.36
